This is the latest recevied weather packets stored in our database for station/object SR2GKG-13. If no packets are shown the sender has not sent any weather packets the latest 10 day(s).
| Time | Temp. | Humidity | Pressure | Rain* | Wind** | Luminosity | Snow |
|---|---|---|---|---|---|---|---|
| 1777601326 | 3.33° C | 70% | 1015.3 hPa | - | - | - | - |
| 1777600426 | 3.33° C | 70% | 1015.4 hPa | - | - | - | - |
| 1777599526 | 3.89° C | 68% | 1015.4 hPa | - | - | - | - |
| 1777598626 | 3.89° C | 67% | 1015.3 hPa | - | - | - | - |
| 1777597726 | 4.44° C | 65% | 1015.2 hPa | - | - | - | - |
| 1777596826 | 4.44° C | 63% | 1015.3 hPa | - | - | - | - |
| 1777595925 | 5.56° C | 59% | 1015.2 hPa | - | - | - | - |
| 1777595025 | 5.56° C | 58% | 1015.2 hPa | - | - | - | - |
| 1777594125 | 5.56° C | 59% | 1015.2 hPa | - | - | - | - |
| 1777593225 | 5.56° C | 58% | 1015.2 hPa | - | - | - | - |
| 1777592325 | 6.67° C | 55% | 1015.3 hPa | - | - | - | - |
| 1777591425 | 6.11° C | 57% | 1015.3 hPa | - | - | - | - |
| 1777590525 | 6.11° C | 59% | 1015.4 hPa | - | - | - | - |
| 1777589625 | 6.11° C | 58% | 1015.4 hPa | - | - | - | - |
| 1777588725 | 6.67° C | 55% | 1015.4 hPa | - | - | - | - |
| 1777587825 | 7.78° C | 53% | 1015.3 hPa | - | - | - | - |
| 1777586925 | 7.78° C | 53% | 1015.3 hPa | - | - | - | - |
| 1777586024 | 7.78° C | 53% | 1015.2 hPa | - | - | - | - |
| 1777585124 | 7.78° C | 54% | 1015.2 hPa | - | - | - | - |
| 1777584224 | 7.78° C | 56% | 1015.3 hPa | - | - | - | - |
| 1777583324 | 7.78° C | 57% | 1015.2 hPa | - | - | - | - |
| 1777582424 | 8.33° C | 55% | 1015.2 hPa | - | - | - | - |
| 1777581524 | 8.89° C | 56% | 1015.2 hPa | - | - | - | - |
| 1777580624 | 8.33° C | 59% | 1015.3 hPa | - | - | - | - |
| 1777579724 | 7.78° C | 65% | 1015.5 hPa | - | - | - | - |
* Rain since midnight (hover to see other rain measurements)
** Current wind speed in m/s (hover to see current wind gust speed)